sensor_id;sensor_type;location;lat;lon;timestamp;temperature;humidity
52643;DHT22;38531;53.296;6.614;2022-12-10T00:01:21;-3.10;99.90
52643;DHT22;38531;53.296;6.614;2022-12-10T00:03:47;-3.10;99.90
52643;DHT22;38531;53.296;6.614;2022-12-10T00:06:16;-3.10;99.90
52643;DHT22;38531;53.296;6.614;2022-12-10T00:08:45;-3.10;99.90
52643;DHT22;38531;53.296;6.614;2022-12-10T00:11:11;-3.10;99.90
52643;DHT22;38531;53.296;6.614;2022-12-10T00:13:38;-3.20;99.90
52643;DHT22;38531;53.296;6.614;2022-12-10T00:16:06;-3.20;99.90
52643;DHT22;38531;53.296;6.614;2022-12-10T00:18:32;-3.20;99.90
52643;DHT22;38531;53.296;6.614;2022-12-10T00:21:20;-3.10;99.90
52643;DHT22;38531;53.296;6.614;2022-12-10T00:23:46;-3.10;99.90
52643;DHT22;38531;53.296;6.614;2022-12-10T00:26:16;-3.10;99.90
52643;DHT22;38531;53.296;6.614;2022-12-10T00:28:42;-3.10;99.90
52643;DHT22;38531;53.296;6.614;2022-12-10T00:31:11;-3.20;99.90
52643;DHT22;38531;53.296;6.614;2022-12-10T00:33:37;-3.10;99.90
52643;DHT22;38531;53.296;6.614;2022-12-10T00:36:12;-3.10;99.90
52643;DHT22;38531;53.296;6.614;2022-12-10T00:38:39;-3.20;99.90
52643;DHT22;38531;53.296;6.614;2022-12-10T00:41:05;-3.20;99.90
52643;DHT22;38531;53.296;6.614;2022-12-10T00:43:31;-3.20;99.90
52643;DHT22;38531;53.296;6.614;2022-12-10T00:45:57;-3.20;99.90
52643;DHT22;38531;53.296;6.614;2022-12-10T00:48:23;-3.20;99.90
52643;DHT22;38531;53.296;6.614;2022-12-10T00:51:04;-3.20;99.90
52643;DHT22;38531;53.296;6.614;2022-12-10T00:53:32;-3.20;99.90
52643;DHT22;38531;53.296;6.614;2022-12-10T00:55:58;-3.20;99.90
52643;DHT22;38531;53.296;6.614;2022-12-10T00:58:28;-3.20;99.90
52643;DHT22;38531;53.296;6.614;2022-12-10T01:00:54;-3.20;99.90
52643;DHT22;38531;53.296;6.614;2022-12-10T01:03:20;-3.20;99.90
52643;DHT22;38531;53.296;6.614;2022-12-10T01:05:46;-3.20;99.90
52643;DHT22;38531;53.296;6.614;2022-12-10T01:08:12;-3.20;99.90
52643;DHT22;38531;53.296;6.614;2022-12-10T01:10:37;-3.20;99.90
52643;DHT22;38531;53.296;6.614;2022-12-10T01:13:04;-3.20;99.90
52643;DHT22;38531;53.296;6.614;2022-12-10T01:15:29;-3.20;99.90
52643;DHT22;38531;53.296;6.614;2022-12-10T01:17:55;-3.20;99.90
52643;DHT22;38531;53.296;6.614;2022-12-10T01:20:21;-3.20;99.90
52643;DHT22;38531;53.296;6.614;2022-12-10T01:22:46;-3.10;99.90
52643;DHT22;38531;53.296;6.614;2022-12-10T01:25:12;-3.10;99.90
52643;DHT22;38531;53.296;6.614;2022-12-10T01:27:38;-3.10;99.90
52643;DHT22;38531;53.296;6.614;2022-12-10T01:30:04;-3.00;99.90
52643;DHT22;38531;53.296;6.614;2022-12-10T01:32:32;-2.90;99.90
52643;DHT22;38531;53.296;6.614;2022-12-10T01:34:57;-2.90;99.90
52643;DHT22;38531;53.296;6.614;2022-12-10T01:37:23;-2.80;99.90
52643;DHT22;38531;53.296;6.614;2022-12-10T01:39:48;-2.70;99.90
52643;DHT22;38531;53.296;6.614;2022-12-10T01:42:14;-2.70;99.90
52643;DHT22;38531;53.296;6.614;2022-12-10T01:47:09;-2.50;99.90
52643;DHT22;38531;53.296;6.614;2022-12-10T01:49:40;-2.50;99.90
52643;DHT22;38531;53.296;6.614;2022-12-10T01:52:09;-1.30;99.90
52643;DHT22;38531;53.296;6.614;2022-12-10T01:54:38;-2.40;99.90
52643;DHT22;38531;53.296;6.614;2022-12-10T01:59:40;-2.40;99.90
52643;DHT22;38531;53.296;6.614;2022-12-10T02:02:34;-2.40;99.90
52643;DHT22;38531;53.296;6.614;2022-12-10T02:05:20;-2.40;99.90
52643;DHT22;38531;53.296;6.614;2022-12-10T02:13:24;-2.50;99.90
52643;DHT22;38531;53.296;6.614;2022-12-10T02:15:56;-2.50;99.90
52643;DHT22;38531;53.296;6.614;2022-12-10T02:21:19;-2.60;99.90
52643;DHT22;38531;53.296;6.614;2022-12-10T02:23:54;-2.60;99.90
52643;DHT22;38531;53.296;6.614;2022-12-10T02:26:31;-2.60;99.90
52643;DHT22;38531;53.296;6.614;2022-12-10T02:29:20;-2.60;99.90
52643;DHT22;38531;53.296;6.614;2022-12-10T02:31:53;-2.60;99.90
52643;DHT22;38531;53.296;6.614;2022-12-10T02:34:21;-2.50;99.90
52643;DHT22;38531;53.296;6.614;2022-12-10T02:36:50;-2.50;99.90
52643;DHT22;38531;53.296;6.614;2022-12-10T02:39:20;-2.60;99.90
52643;DHT22;38531;53.296;6.614;2022-12-10T02:41:51;-2.60;99.90
52643;DHT22;38531;53.296;6.614;2022-12-10T02:44:22;-2.60;99.90
52643;DHT22;38531;53.296;6.614;2022-12-10T02:46:51;-2.60;99.90
52643;DHT22;38531;53.296;6.614;2022-12-10T02:49:18;-2.60;99.90
52643;DHT22;38531;53.296;6.614;2022-12-10T02:51:43;-2.70;99.90
52643;DHT22;38531;53.296;6.614;2022-12-10T02:54:47;-2.70;99.90
52643;DHT22;38531;53.296;6.614;2022-12-10T03:00:12;-2.70;99.90
52643;DHT22;38531;53.296;6.614;2022-12-10T03:02:45;-2.70;99.90
52643;DHT22;38531;53.296;6.614;2022-12-10T03:08:21;-2.70;99.90
52643;DHT22;38531;53.296;6.614;2022-12-10T03:13:29;-2.80;99.90
52643;DHT22;38531;53.296;6.614;2022-12-10T03:16:03;-2.80;99.90
52643;DHT22;38531;53.296;6.614;2022-12-10T03:18:30;-2.80;99.90
52643;DHT22;38531;53.296;6.614;2022-12-10T03:21:01;-2.80;99.90
52643;DHT22;38531;53.296;6.614;2022-12-10T03:23:28;-2.80;99.90
52643;DHT22;38531;53.296;6.614;2022-12-10T03:25:55;-2.80;99.90
52643;DHT22;38531;53.296;6.614;2022-12-10T03:28:21;-2.80;99.90
52643;DHT22;38531;53.296;6.614;2022-12-10T03:30:49;-2.80;99.90
52643;DHT22;38531;53.296;6.614;2022-12-10T03:33:16;-2.80;99.90
52643;DHT22;38531;53.296;6.614;2022-12-10T03:35:42;-1.70;99.90
52643;DHT22;38531;53.296;6.614;2022-12-10T03:38:09;-2.00;99.90
52643;DHT22;38531;53.296;6.614;2022-12-10T03:40:35;-2.90;99.90
52643;DHT22;38531;53.296;6.614;2022-12-10T03:43:01;-2.90;99.90
52643;DHT22;38531;53.296;6.614;2022-12-10T03:45:26;-2.80;99.90
52643;DHT22;38531;53.296;6.614;2022-12-10T03:47:52;-1.30;99.90
52643;DHT22;38531;53.296;6.614;2022-12-10T03:50:18;-3.00;99.90
52643;DHT22;38531;53.296;6.614;2022-12-10T03:52:43;-2.90;99.90
52643;DHT22;38531;53.296;6.614;2022-12-10T03:55:09;-3.00;99.90
52643;DHT22;38531;53.296;6.614;2022-12-10T03:57:35;-2.90;99.90
52643;DHT22;38531;53.296;6.614;2022-12-10T04:00:03;-2.10;99.90
52643;DHT22;38531;53.296;6.614;2022-12-10T04:02:29;-3.10;99.90
52643;DHT22;38531;53.296;6.614;2022-12-10T04:04:54;-2.20;99.90
52643;DHT22;38531;53.296;6.614;2022-12-10T04:07:20;-3.00;99.90
52643;DHT22;38531;53.296;6.614;2022-12-10T04:09:46;-3.00;99.90
52643;DHT22;38531;53.296;6.614;2022-12-10T04:12:14;-2.90;99.90
52643;DHT22;38531;53.296;6.614;2022-12-10T04:14:40;-2.90;99.90
52643;DHT22;38531;53.296;6.614;2022-12-10T04:17:24;-2.90;99.90
52643;DHT22;38531;53.296;6.614;2022-12-10T04:19:50;-2.90;99.90
52643;DHT22;38531;53.296;6.614;2022-12-10T04:22:15;-2.90;99.90
52643;DHT22;38531;53.296;6.614;2022-12-10T04:24:59;-2.90;99.90
52643;DHT22;38531;53.296;6.614;2022-12-10T04:27:48;-2.90;99.90
52643;DHT22;38531;53.296;6.614;2022-12-10T04:30:14;-2.30;99.90
52643;DHT22;38531;53.296;6.614;2022-12-10T04:32:39;-2.90;99.90
52643;DHT22;38531;53.296;6.614;2022-12-10T04:35:05;-1.70;99.90
52643;DHT22;38531;53.296;6.614;2022-12-10T04:37:31;-2.90;99.90
52643;DHT22;38531;53.296;6.614;2022-12-10T04:39:57;-2.90;99.90
52643;DHT22;38531;53.296;6.614;2022-12-10T04:42:23;-3.00;99.90
52643;DHT22;38531;53.296;6.614;2022-12-10T04:44:49;-2.80;99.90
52643;DHT22;38531;53.296;6.614;2022-12-10T04:47:14;-2.90;99.90
52643;DHT22;38531;53.296;6.614;2022-12-10T04:49:40;-1.90;99.90
52643;DHT22;38531;53.296;6.614;2022-12-10T04:52:07;-2.80;99.90
52643;DHT22;38531;53.296;6.614;2022-12-10T04:54:33;-2.80;99.90
52643;DHT22;38531;53.296;6.614;2022-12-10T04:56:59;-2.80;99.90
52643;DHT22;38531;53.296;6.614;2022-12-10T04:59:24;-2.80;99.90
52643;DHT22;38531;53.296;6.614;2022-12-10T05:01:50;-2.80;99.90
52643;DHT22;38531;53.296;6.614;2022-12-10T05:04:17;-2.20;99.90
52643;DHT22;38531;53.296;6.614;2022-12-10T05:06:44;-2.80;99.90
52643;DHT22;38531;53.296;6.614;2022-12-10T05:09:11;-2.80;99.90
52643;DHT22;38531;53.296;6.614;2022-12-10T05:11:40;-2.80;99.90
52643;DHT22;38531;53.296;6.614;2022-12-10T05:14:08;-2.80;99.90
52643;DHT22;38531;53.296;6.614;2022-12-10T05:16:34;-2.80;99.90
52643;DHT22;38531;53.296;6.614;2022-12-10T05:19:00;-2.80;99.90
52643;DHT22;38531;53.296;6.614;2022-12-10T05:21:27;-2.80;99.90
52643;DHT22;38531;53.296;6.614;2022-12-10T05:24:14;-2.70;99.90
52643;DHT22;38531;53.296;6.614;2022-12-10T05:26:40;-2.70;99.90
52643;DHT22;38531;53.296;6.614;2022-12-10T05:29:06;-2.70;99.90
52643;DHT22;38531;53.296;6.614;2022-12-10T05:31:31;-2.70;99.90
52643;DHT22;38531;53.296;6.614;2022-12-10T05:33:58;-1.70;99.90
52643;DHT22;38531;53.296;6.614;2022-12-10T05:36:25;-1.80;99.90
52643;DHT22;38531;53.296;6.614;2022-12-10T05:38:52;-2.50;99.90
52643;DHT22;38531;53.296;6.614;2022-12-10T05:41:20;-2.40;99.90
52643;DHT22;38531;53.296;6.614;2022-12-10T05:43:47;-2.30;99.90
52643;DHT22;38531;53.296;6.614;2022-12-10T05:46:20;-2.30;99.90
52643;DHT22;38531;53.296;6.614;2022-12-10T05:48:47;-2.20;99.90
52643;DHT22;38531;53.296;6.614;2022-12-10T05:51:15;-2.20;99.90
52643;DHT22;38531;53.296;6.614;2022-12-10T05:53:41;-2.20;99.90
52643;DHT22;38531;53.296;6.614;2022-12-10T05:56:12;-2.20;99.90
52643;DHT22;38531;53.296;6.614;2022-12-10T05:58:39;-2.10;99.90
52643;DHT22;38531;53.296;6.614;2022-12-10T06:01:18;-2.10;99.90
52643;DHT22;38531;53.296;6.614;2022-12-10T06:03:44;-2.10;99.90
52643;DHT22;38531;53.296;6.614;2022-12-10T06:06:11;-2.10;99.90
52643;DHT22;38531;53.296;6.614;2022-12-10T06:08:37;-2.10;99.90
52643;DHT22;38531;53.296;6.614;2022-12-10T06:11:04;-2.10;99.90
52643;DHT22;38531;53.296;6.614;2022-12-10T06:13:30;-2.10;99.90
52643;DHT22;38531;53.296;6.614;2022-12-10T06:15:56;-1.50;99.90
52643;DHT22;38531;53.296;6.614;2022-12-10T06:18:22;-1.10;99.90
52643;DHT22;38531;53.296;6.614;2022-12-10T06:20:51;-2.10;99.90
52643;DHT22;38531;53.296;6.614;2022-12-10T06:23:16;-2.00;99.90
52643;DHT22;38531;53.296;6.614;2022-12-10T06:25:42;-2.00;99.90
52643;DHT22;38531;53.296;6.614;2022-12-10T06:28:08;-2.00;99.90
52643;DHT22;38531;53.296;6.614;2022-12-10T06:30:34;-2.10;99.90
52643;DHT22;38531;53.296;6.614;2022-12-10T06:33:04;-2.10;99.90
52643;DHT22;38531;53.296;6.614;2022-12-10T06:35:29;-2.00;99.90
52643;DHT22;38531;53.296;6.614;2022-12-10T06:37:55;-1.10;99.90
52643;DHT22;38531;53.296;6.614;2022-12-10T06:40:21;-2.60;99.90
52643;DHT22;38531;53.296;6.614;2022-12-10T06:42:46;-2.00;99.90
52643;DHT22;38531;53.296;6.614;2022-12-10T06:45:12;-0.50;99.90
52643;DHT22;38531;53.296;6.614;2022-12-10T06:47:38;-2.00;99.90
52643;DHT22;38531;53.296;6.614;2022-12-10T06:50:04;-2.00;99.90
52643;DHT22;38531;53.296;6.614;2022-12-10T06:52:30;-1.90;99.90
52643;DHT22;38531;53.296;6.614;2022-12-10T06:54:55;-1.90;99.90
52643;DHT22;38531;53.296;6.614;2022-12-10T06:57:22;-1.90;99.90
52643;DHT22;38531;53.296;6.614;2022-12-10T06:59:47;-1.90;99.90
52643;DHT22;38531;53.296;6.614;2022-12-10T07:02:13;-1.80;99.90
52643;DHT22;38531;53.296;6.614;2022-12-10T07:04:39;-1.80;99.90
52643;DHT22;38531;53.296;6.614;2022-12-10T07:07:05;-1.80;99.90
52643;DHT22;38531;53.296;6.614;2022-12-10T07:09:32;-0.60;99.90
52643;DHT22;38531;53.296;6.614;2022-12-10T07:11:58;-1.80;99.90
52643;DHT22;38531;53.296;6.614;2022-12-10T07:14:24;-1.80;99.90
52643;DHT22;38531;53.296;6.614;2022-12-10T07:16:49;-1.80;99.90
52643;DHT22;38531;53.296;6.614;2022-12-10T07:19:15;-1.80;99.90
52643;DHT22;38531;53.296;6.614;2022-12-10T07:21:44;-1.80;99.90
52643;DHT22;38531;53.296;6.614;2022-12-10T07:24:16;-1.80;99.90
52643;DHT22;38531;53.296;6.614;2022-12-10T07:26:44;-1.10;99.90
52643;DHT22;38531;53.296;6.614;2022-12-10T07:29:16;-1.80;99.90
52643;DHT22;38531;53.296;6.614;2022-12-10T07:31:42;-1.80;99.90
52643;DHT22;38531;53.296;6.614;2022-12-10T07:34:09;-1.80;99.90
52643;DHT22;38531;53.296;6.614;2022-12-10T07:36:35;-1.80;99.90
52643;DHT22;38531;53.296;6.614;2022-12-10T07:39:01;-1.60;99.90
52643;DHT22;38531;53.296;6.614;2022-12-10T07:41:27;-1.80;99.90
52643;DHT22;38531;53.296;6.614;2022-12-10T07:43:52;-1.90;99.90
52643;DHT22;38531;53.296;6.614;2022-12-10T07:46:24;-1.80;99.90
52643;DHT22;38531;53.296;6.614;2022-12-10T07:48:51;-1.80;99.90
52643;DHT22;38531;53.296;6.614;2022-12-10T07:51:19;-1.80;99.90
52643;DHT22;38531;53.296;6.614;2022-12-10T07:53:46;-1.90;99.90
52643;DHT22;38531;53.296;6.614;2022-12-10T07:56:12;-1.10;99.90
52643;DHT22;38531;53.296;6.614;2022-12-10T07:58:41;-1.90;99.90
52643;DHT22;38531;53.296;6.614;2022-12-10T08:01:08;-1.90;99.90
52643;DHT22;38531;53.296;6.614;2022-12-10T08:03:34;-1.90;99.90
52643;DHT22;38531;53.296;6.614;2022-12-10T08:06:05;-1.30;99.90
52643;DHT22;38531;53.296;6.614;2022-12-10T08:08:33;-1.90;99.90
52643;DHT22;38531;53.296;6.614;2022-12-10T08:11:00;-1.40;99.90
52643;DHT22;38531;53.296;6.614;2022-12-10T08:13:29;-1.30;99.90
52643;DHT22;38531;53.296;6.614;2022-12-10T08:16:08;-2.20;99.90
52643;DHT22;38531;53.296;6.614;2022-12-10T08:18:36;-1.90;99.90
52643;DHT22;38531;53.296;6.614;2022-12-10T08:21:08;-0.60;99.90
52643;DHT22;38531;53.296;6.614;2022-12-10T08:23:35;-1.90;99.90
52643;DHT22;38531;53.296;6.614;2022-12-10T08:26:05;-1.30;99.90
52643;DHT22;38531;53.296;6.614;2022-12-10T08:28:32;-2.00;99.90
52643;DHT22;38531;53.296;6.614;2022-12-10T08:30:57;-1.80;99.90
52643;DHT22;38531;53.296;6.614;2022-12-10T08:33:23;-0.50;99.90
52643;DHT22;38531;53.296;6.614;2022-12-10T08:35:50;-2.00;99.90
52643;DHT22;38531;53.296;6.614;2022-12-10T08:38:15;-1.80;99.90
52643;DHT22;38531;53.296;6.614;2022-12-10T08:40:42;-2.00;99.90
52643;DHT22;38531;53.296;6.614;2022-12-10T08:43:07;-1.80;99.90
52643;DHT22;38531;53.296;6.614;2022-12-10T08:45:33;-1.80;99.90
52643;DHT22;38531;53.296;6.614;2022-12-10T08:48:00;-1.90;99.90
52643;DHT22;38531;53.296;6.614;2022-12-10T08:50:27;-1.90;99.90
52643;DHT22;38531;53.296;6.614;2022-12-10T08:52:53;-2.00;99.90
52643;DHT22;38531;53.296;6.614;2022-12-10T08:55:18;-0.30;99.90
52643;DHT22;38531;53.296;6.614;2022-12-10T08:57:47;-1.90;99.90
52643;DHT22;38531;53.296;6.614;2022-12-10T09:00:13;-1.20;99.90
52643;DHT22;38531;53.296;6.614;2022-12-10T09:02:39;-1.80;99.90
52643;DHT22;38531;53.296;6.614;2022-12-10T09:05:05;-1.90;99.90
52643;DHT22;38531;53.296;6.614;2022-12-10T09:07:35;-1.80;99.90
52643;DHT22;38531;53.296;6.614;2022-12-10T09:10:00;-1.00;99.90
52643;DHT22;38531;53.296;6.614;2022-12-10T09:12:28;-1.80;99.90
52643;DHT22;38531;53.296;6.614;2022-12-10T09:14:56;-1.50;99.90
52643;DHT22;38531;53.296;6.614;2022-12-10T09:17:22;-1.90;99.90
52643;DHT22;38531;53.296;6.614;2022-12-10T09:19:48;0.00;99.90
52643;DHT22;38531;53.296;6.614;2022-12-10T09:22:14;-1.80;99.90
52643;DHT22;38531;53.296;6.614;2022-12-10T09:24:39;0.70;99.90
52643;DHT22;38531;53.296;6.614;2022-12-10T09:27:05;-0.50;99.90
52643;DHT22;38531;53.296;6.614;2022-12-10T09:29:31;0.70;99.90
52643;DHT22;38531;53.296;6.614;2022-12-10T09:31:56;-1.70;99.90
52643;DHT22;38531;53.296;6.614;2022-12-10T09:34:22;-1.70;99.90
52643;DHT22;38531;53.296;6.614;2022-12-10T09:36:48;-1.60;99.90
52643;DHT22;38531;53.296;6.614;2022-12-10T09:39:14;-1.60;99.90
52643;DHT22;38531;53.296;6.614;2022-12-10T09:46:59;-1.60;99.90
52643;DHT22;38531;53.296;6.614;2022-12-10T09:52:19;-1.60;99.90
52643;DHT22;38531;53.296;6.614;2022-12-10T09:54:56;-1.60;99.90
52643;DHT22;38531;53.296;6.614;2022-12-10T09:57:29;-1.60;99.90
52643;DHT22;38531;53.296;6.614;2022-12-10T10:00:00;-2.30;99.90
52643;DHT22;38531;53.296;6.614;2022-12-10T10:02:31;-1.60;99.90
52643;DHT22;38531;53.296;6.614;2022-12-10T10:07:34;-0.80;99.90
52643;DHT22;38531;53.296;6.614;2022-12-10T10:10:05;-1.10;99.90
52643;DHT22;38531;53.296;6.614;2022-12-10T10:12:33;-1.50;99.90
52643;DHT22;38531;53.296;6.614;2022-12-10T10:15:10;-1.60;99.90
52643;DHT22;38531;53.296;6.614;2022-12-10T10:17:37;-1.50;99.90
52643;DHT22;38531;53.296;6.614;2022-12-10T10:20:04;-1.60;99.90
52643;DHT22;38531;53.296;6.614;2022-12-10T10:22:31;-1.50;99.90
52643;DHT22;38531;53.296;6.614;2022-12-10T10:25:00;-1.50;99.90
52643;DHT22;38531;53.296;6.614;2022-12-10T10:27:30;-1.50;99.90
52643;DHT22;38531;53.296;6.614;2022-12-10T10:29:59;-1.60;99.90
52643;DHT22;38531;53.296;6.614;2022-12-10T10:32:50;-0.80;99.90
52643;DHT22;38531;53.296;6.614;2022-12-10T10:35:33;-0.70;99.90
52643;DHT22;38531;53.296;6.614;2022-12-10T10:38:07;-1.50;99.90
52643;DHT22;38531;53.296;6.614;2022-12-10T10:40:40;-1.50;99.90
52643;DHT22;38531;53.296;6.614;2022-12-10T10:43:06;-1.50;99.90
52643;DHT22;38531;53.296;6.614;2022-12-10T10:45:41;-1.40;99.90
52643;DHT22;38531;53.296;6.614;2022-12-10T10:48:15;-0.50;99.90
52643;DHT22;38531;53.296;6.614;2022-12-10T10:50:49;-1.40;99.90
52643;DHT22;38531;53.296;6.614;2022-12-10T10:53:28;-1.40;99.90
52643;DHT22;38531;53.296;6.614;2022-12-10T10:56:01;-1.40;99.90
52643;DHT22;38531;53.296;6.614;2022-12-10T10:58:30;-1.20;99.90
52643;DHT22;38531;53.296;6.614;2022-12-10T11:01:02;-1.30;99.90
52643;DHT22;38531;53.296;6.614;2022-12-10T11:03:30;-0.30;99.90
52643;DHT22;38531;53.296;6.614;2022-12-10T11:05:58;-1.30;99.90
52643;DHT22;38531;53.296;6.614;2022-12-10T11:08:26;-0.30;99.90
52643;DHT22;38531;53.296;6.614;2022-12-10T11:11:10;-0.80;99.90
52643;DHT22;38531;53.296;6.614;2022-12-10T11:13:37;0.10;99.90
52643;DHT22;38531;53.296;6.614;2022-12-10T11:16:23;-1.10;99.90
52643;DHT22;38531;53.296;6.614;2022-12-10T11:19:03;-0.60;99.90
52643;DHT22;38531;53.296;6.614;2022-12-10T11:21:34;-0.50;99.90
52643;DHT22;38531;53.296;6.614;2022-12-10T11:24:00;-0.90;99.90
52643;DHT22;38531;53.296;6.614;2022-12-10T11:29:35;-0.90;99.90
52643;DHT22;38531;53.296;6.614;2022-12-10T11:37:52;-0.80;99.90
52643;DHT22;38531;53.296;6.614;2022-12-10T11:43:00;-0.50;99.90
52643;DHT22;38531;53.296;6.614;2022-12-10T11:48:55;-0.80;99.90
52643;DHT22;38531;53.296;6.614;2022-12-10T11:51:34;-0.80;99.90
52643;DHT22;38531;53.296;6.614;2022-12-10T11:56:49;-0.90;99.90
52643;DHT22;38531;53.296;6.614;2022-12-10T11:59:34;-0.90;99.90
52643;DHT22;38531;53.296;6.614;2022-12-10T12:08:38;-0.90;99.90
52643;DHT22;38531;53.296;6.614;2022-12-10T12:13:59;-0.90;99.90
52643;DHT22;38531;53.296;6.614;2022-12-10T12:19:23;-1.30;99.90
52643;DHT22;38531;53.296;6.614;2022-12-10T12:21:51;-0.10;99.90
52643;DHT22;38531;53.296;6.614;2022-12-10T12:24:19;0.20;99.90
52643;DHT22;38531;53.296;6.614;2022-12-10T12:26:57;-1.00;99.90
52643;DHT22;38531;53.296;6.614;2022-12-10T12:29:37;-0.90;99.90
52643;DHT22;38531;53.296;6.614;2022-12-10T12:38:03;-0.90;99.90
52643;DHT22;38531;53.296;6.614;2022-12-10T12:41:04;0.20;99.90
52643;DHT22;38531;53.296;6.614;2022-12-10T12:46:13;-0.80;99.90
52643;DHT22;38531;53.296;6.614;2022-12-10T12:48:48;-0.20;99.90
52643;DHT22;38531;53.296;6.614;2022-12-10T12:51:28;-0.90;99.90
52643;DHT22;38531;53.296;6.614;2022-12-10T12:53:55;-1.10;99.90
52643;DHT22;38531;53.296;6.614;2022-12-10T12:59:01;-1.30;99.90
52643;DHT22;38531;53.296;6.614;2022-12-10T13:01:51;-0.80;99.90
52643;DHT22;38531;53.296;6.614;2022-12-10T13:04:18;-0.70;99.90
52643;DHT22;38531;53.296;6.614;2022-12-10T13:07:26;-0.70;99.90
52643;DHT22;38531;53.296;6.614;2022-12-10T13:10:17;-0.60;99.90
52643;DHT22;38531;53.296;6.614;2022-12-10T13:15:38;-0.60;99.90
52643;DHT22;38531;53.296;6.614;2022-12-10T13:20:49;-0.20;99.90
52643;DHT22;38531;53.296;6.614;2022-12-10T13:28:31;-0.70;99.90
52643;DHT22;38531;53.296;6.614;2022-12-10T13:34:22;-0.70;99.90
52643;DHT22;38531;53.296;6.614;2022-12-10T13:39:29;-0.60;99.90
52643;DHT22;38531;53.296;6.614;2022-12-10T13:45:05;0.20;99.90
52643;DHT22;38531;53.296;6.614;2022-12-10T13:53:00;-0.60;99.90
52643;DHT22;38531;53.296;6.614;2022-12-10T13:55:38;-0.50;99.90
52643;DHT22;38531;53.296;6.614;2022-12-10T14:04:15;-0.50;99.90
52643;DHT22;38531;53.296;6.614;2022-12-10T14:06:43;-0.50;99.90
52643;DHT22;38531;53.296;6.614;2022-12-10T14:09:23;-0.50;99.90
52643;DHT22;38531;53.296;6.614;2022-12-10T14:11:56;-0.50;99.90
52643;DHT22;38531;53.296;6.614;2022-12-10T14:14:44;-0.50;99.90
52643;DHT22;38531;53.296;6.614;2022-12-10T14:17:18;-0.50;99.90
52643;DHT22;38531;53.296;6.614;2022-12-10T14:19:46;-0.50;99.90
52643;DHT22;38531;53.296;6.614;2022-12-10T14:22:18;0.20;99.90
52643;DHT22;38531;53.296;6.614;2022-12-10T14:24:49;-0.50;99.90
52643;DHT22;38531;53.296;6.614;2022-12-10T14:27:18;-0.60;99.90
52643;DHT22;38531;53.296;6.614;2022-12-10T14:29:52;0.30;99.90
52643;DHT22;38531;53.296;6.614;2022-12-10T14:32:28;-0.50;99.90
52643;DHT22;38531;53.296;6.614;2022-12-10T14:34:57;0.90;99.90
52643;DHT22;38531;53.296;6.614;2022-12-10T14:37:27;-0.20;99.90
52643;DHT22;38531;53.296;6.614;2022-12-10T14:39:54;0.00;99.90
52643;DHT22;38531;53.296;6.614;2022-12-10T14:42:21;-0.10;99.90
52643;DHT22;38531;53.296;6.614;2022-12-10T14:45:02;-0.60;99.90
52643;DHT22;38531;53.296;6.614;2022-12-10T14:47:36;-0.40;99.90
52643;DHT22;38531;53.296;6.614;2022-12-10T14:50:05;-0.30;99.90
52643;DHT22;38531;53.296;6.614;2022-12-10T14:52:41;-0.40;99.90
52643;DHT22;38531;53.296;6.614;2022-12-10T14:55:15;0.30;99.90
52643;DHT22;38531;53.296;6.614;2022-12-10T14:57:53;-0.40;99.90
52643;DHT22;38531;53.296;6.614;2022-12-10T15:00:23;0.80;99.90
52643;DHT22;38531;53.296;6.614;2022-12-10T15:03:00;0.50;99.90
52643;DHT22;38531;53.296;6.614;2022-12-10T15:05:36;1.40;99.90
52643;DHT22;38531;53.296;6.614;2022-12-10T15:08:22;0.30;99.90
52643;DHT22;38531;53.296;6.614;2022-12-10T15:10:56;-0.50;99.90
52643;DHT22;38531;53.296;6.614;2022-12-10T15:15:58;0.30;99.90
52643;DHT22;38531;53.296;6.614;2022-12-10T15:18:29;0.50;99.90
52643;DHT22;38531;53.296;6.614;2022-12-10T15:21:14;-0.40;99.90
52643;DHT22;38531;53.296;6.614;2022-12-10T15:23:43;-0.40;99.90
52643;DHT22;38531;53.296;6.614;2022-12-10T15:26:13;0.60;99.90
52643;DHT22;38531;53.296;6.614;2022-12-10T15:28:41;0.30;99.90
52643;DHT22;38531;53.296;6.614;2022-12-10T15:33:55;-0.70;99.90
52643;DHT22;38531;53.296;6.614;2022-12-10T15:39:17;-0.40;99.90
52643;DHT22;38531;53.296;6.614;2022-12-10T15:41:52;-0.40;99.90
52643;DHT22;38531;53.296;6.614;2022-12-10T15:44:36;-1.10;99.90
52643;DHT22;38531;53.296;6.614;2022-12-10T15:47:21;0.10;99.90
52643;DHT22;38531;53.296;6.614;2022-12-10T15:49:49;-0.40;99.90
52643;DHT22;38531;53.296;6.614;2022-12-10T15:52:17;0.40;99.90
52643;DHT22;38531;53.296;6.614;2022-12-10T15:54:45;0.20;99.90
52643;DHT22;38531;53.296;6.614;2022-12-10T15:57:21;-0.50;99.90
52643;DHT22;38531;53.296;6.614;2022-12-10T15:59:49;-0.30;99.90
52643;DHT22;38531;53.296;6.614;2022-12-10T16:04:50;-0.40;99.90
52643;DHT22;38531;53.296;6.614;2022-12-10T16:07:16;-0.20;99.90
52643;DHT22;38531;53.296;6.614;2022-12-10T16:09:43;-0.20;99.90
52643;DHT22;38531;53.296;6.614;2022-12-10T16:12:13;0.30;99.90
52643;DHT22;38531;53.296;6.614;2022-12-10T16:14:50;-0.70;99.90
52643;DHT22;38531;53.296;6.614;2022-12-10T16:17:18;0.50;99.90
52643;DHT22;38531;53.296;6.614;2022-12-10T16:19:44;0.50;99.90
52643;DHT22;38531;53.296;6.614;2022-12-10T16:22:10;0.20;99.90
52643;DHT22;38531;53.296;6.614;2022-12-10T16:24:36;-0.30;99.90
52643;DHT22;38531;53.296;6.614;2022-12-10T16:27:04;-0.50;99.90
52643;DHT22;38531;53.296;6.614;2022-12-10T16:29:30;-0.50;99.90
52643;DHT22;38531;53.296;6.614;2022-12-10T16:31:55;-0.60;99.90
52643;DHT22;38531;53.296;6.614;2022-12-10T16:34:21;1.20;99.90
52643;DHT22;38531;53.296;6.614;2022-12-10T16:36:47;-0.10;99.90
52643;DHT22;38531;53.296;6.614;2022-12-10T16:39:12;-0.50;99.90
52643;DHT22;38531;53.296;6.614;2022-12-10T16:41:54;-0.40;99.90
52643;DHT22;38531;53.296;6.614;2022-12-10T16:44:20;0.40;99.90
52643;DHT22;38531;53.296;6.614;2022-12-10T16:46:46;0.00;99.90
52643;DHT22;38531;53.296;6.614;2022-12-10T16:49:12;-0.40;99.90
52643;DHT22;38531;53.296;6.614;2022-12-10T16:51:37;-0.50;99.90
52643;DHT22;38531;53.296;6.614;2022-12-10T16:54:03;-0.60;99.90
52643;DHT22;38531;53.296;6.614;2022-12-10T16:56:30;-0.40;99.90
52643;DHT22;38531;53.296;6.614;2022-12-10T16:58:55;0.20;99.90
52643;DHT22;38531;53.296;6.614;2022-12-10T17:01:27;-0.50;99.90
52643;DHT22;38531;53.296;6.614;2022-12-10T17:03:53;1.00;99.90
52643;DHT22;38531;53.296;6.614;2022-12-10T17:06:20;-0.60;99.90
52643;DHT22;38531;53.296;6.614;2022-12-10T17:08:46;-0.80;99.90
52643;DHT22;38531;53.296;6.614;2022-12-10T17:11:33;-0.30;99.90
52643;DHT22;38531;53.296;6.614;2022-12-10T17:14:23;0.10;99.90
52643;DHT22;38531;53.296;6.614;2022-12-10T17:16:50;-0.10;99.90
52643;DHT22;38531;53.296;6.614;2022-12-10T17:19:16;-1.30;99.90
52643;DHT22;38531;53.296;6.614;2022-12-10T17:25:22;-0.60;99.90
52643;DHT22;38531;53.296;6.614;2022-12-10T17:27:48;0.80;99.90
52643;DHT22;38531;53.296;6.614;2022-12-10T17:30:14;-0.50;99.90
52643;DHT22;38531;53.296;6.614;2022-12-10T17:32:41;-0.10;99.90
52643;DHT22;38531;53.296;6.614;2022-12-10T17:35:07;-0.40;99.90
52643;DHT22;38531;53.296;6.614;2022-12-10T17:37:37;-0.50;99.90
52643;DHT22;38531;53.296;6.614;2022-12-10T17:40:15;-0.50;99.90
52643;DHT22;38531;53.296;6.614;2022-12-10T17:42:41;-0.50;99.90
52643;DHT22;38531;53.296;6.614;2022-12-10T17:45:08;-0.60;99.90
52643;DHT22;38531;53.296;6.614;2022-12-10T17:47:34;-0.50;99.90